createdAt,value
2022-10-23T00:00:56.799Z,15.53
2022-10-23T00:03:23.340Z,15.54
2022-10-23T00:05:49.819Z,15.52
2022-10-23T00:08:16.288Z,15.43
2022-10-23T00:10:43.650Z,15.48
2022-10-23T00:13:10.144Z,15.49
2022-10-23T00:15:36.935Z,15.49
2022-10-23T00:18:04.545Z,15.49
2022-10-23T00:20:30.987Z,15.48
2022-10-23T00:22:57.407Z,15.47
2022-10-23T00:25:23.837Z,15.48
2022-10-23T00:27:50.278Z,15.47
2022-10-23T00:30:16.683Z,15.48
2022-10-23T00:32:43.128Z,15.48
2022-10-23T00:35:09.569Z,15.47
2022-10-23T00:37:36.024Z,15.47
2022-10-23T00:40:02.449Z,15.47
2022-10-23T00:42:28.933Z,15.47
2022-10-23T00:44:56.184Z,15.47
2022-10-23T00:47:22.687Z,15.48
2022-10-23T00:49:49.723Z,15.49
2022-10-23T00:52:16.783Z,15.52
2022-10-23T00:54:43.904Z,15.47
2022-10-23T00:57:15.641Z,15.32
2022-10-23T00:59:42.376Z,15.53
2022-10-23T01:02:09.343Z,15.52
2022-10-23T01:04:37.232Z,15.57
2022-10-23T01:07:13.075Z,15.57
2022-10-23T01:10:11.372Z,15.56
2022-10-23T01:13:08.256Z,15.55
2022-10-23T01:15:43.219Z,15.53
2022-10-23T01:18:27.662Z,15.53
2022-10-23T01:21:00.513Z,15.53
2022-10-23T01:24:04.422Z,15.51
2022-10-23T01:27:02.169Z,15.48
2022-10-23T01:29:58.707Z,15.41
2022-10-23T01:32:42.782Z,15.23
2022-10-23T01:35:14.469Z,15.40
2022-10-23T01:37:48.831Z,15.03
2022-10-23T01:40:27.354Z,15.33
2022-10-23T01:42:58.353Z,15.35
2022-10-23T01:45:52.944Z,15.32
2022-10-23T01:48:28.279Z,15.26
2022-10-23T01:51:01.507Z,15.29
2022-10-23T01:53:31.727Z,15.33
2022-10-23T01:56:05.560Z,15.08
2022-10-23T01:58:34.415Z,15.28
2022-10-23T02:01:05.661Z,15.09
2022-10-23T02:03:37.284Z,15.31
2022-10-23T02:06:07.472Z,15.31
2022-10-23T02:08:34.527Z,15.30
2022-10-23T02:11:09.105Z,15.28
2022-10-23T02:13:42.652Z,15.31
2022-10-23T02:16:51.638Z,15.29
2022-10-23T02:19:35.760Z,15.26
2022-10-23T02:22:10.690Z,15.33
2022-10-23T02:24:55.596Z,15.23
2022-10-23T02:27:28.781Z,15.32
2022-10-23T02:30:03.313Z,15.32
2022-10-23T02:32:30.930Z,15.28
2022-10-23T02:34:57.362Z,15.33
2022-10-23T02:37:23.946Z,15.33
2022-10-23T02:39:50.555Z,15.33
2022-10-23T02:42:39.154Z,15.24
2022-10-23T02:45:15.651Z,15.11
2022-10-23T02:47:54.197Z,15.33
2022-10-23T02:50:29.820Z,15.35
2022-10-23T02:53:11.386Z,15.28
2022-10-23T02:55:40.767Z,15.33
2022-10-23T02:58:27.463Z,15.34
2022-10-23T03:01:17.108Z,15.31
2022-10-23T03:04:04.938Z,14.97
2022-10-23T03:06:32.695Z,15.12
2022-10-23T03:09:05.224Z,15.34
2022-10-23T03:11:32.009Z,15.32
2022-10-23T03:13:58.653Z,15.35
2022-10-23T03:16:25.304Z,15.35
2022-10-23T03:18:54.537Z,15.33
2022-10-23T03:21:21.225Z,15.35
2022-10-23T03:23:51.829Z,15.37
2022-10-23T03:26:24.333Z,15.36
2022-10-23T03:28:50.817Z,15.36
2022-10-23T03:31:20.191Z,15.38
2022-10-23T03:33:49.464Z,15.39
2022-10-23T03:36:15.998Z,15.37
2022-10-23T03:38:43.910Z,15.39
2022-10-23T03:41:10.618Z,15.40
2022-10-23T03:43:37.081Z,15.40
2022-10-23T03:46:03.630Z,15.33
2022-10-23T03:48:30.079Z,15.43
2022-10-23T03:50:58.449Z,15.43
2022-10-23T03:53:25.080Z,15.42
2022-10-23T03:55:51.504Z,15.43
2022-10-23T03:58:18.106Z,15.45
2022-10-23T04:00:45.601Z,15.45
2022-10-23T04:03:12.133Z,15.46
2022-10-23T04:05:38.620Z,15.48
2022-10-23T04:08:05.175Z,15.46
2022-10-23T04:10:33.602Z,15.45
2022-10-23T04:13:00.518Z,15.48
2022-10-23T04:15:27.362Z,15.49
2022-10-23T04:17:54.625Z,15.49
2022-10-23T04:20:21.056Z,15.48
2022-10-23T04:22:47.529Z,15.47
2022-10-23T04:25:14.125Z,15.44
2022-10-23T04:27:40.757Z,15.45
2022-10-23T04:30:08.223Z,15.46
2022-10-23T04:32:34.867Z,15.47
2022-10-23T04:35:01.335Z,15.45
2022-10-23T04:37:30.203Z,15.42
2022-10-23T04:39:56.670Z,15.41
2022-10-23T04:42:23.147Z,15.45
2022-10-23T04:44:49.660Z,15.45
2022-10-23T04:47:16.109Z,15.44
2022-10-23T04:49:55.000Z,15.43
2022-10-23T04:52:35.412Z,15.40
2022-10-23T04:55:33.925Z,15.37
2022-10-23T04:58:11.883Z,15.35
2022-10-23T05:00:38.361Z,15.31
2022-10-23T05:03:04.839Z,15.29
2022-10-23T05:05:36.485Z,15.25
2022-10-23T05:08:22.389Z,15.27
2022-10-23T05:11:07.184Z,15.24
2022-10-23T05:13:39.082Z,15.22
2022-10-23T05:16:05.637Z,15.21
2022-10-23T05:18:36.603Z,15.23
2022-10-23T05:21:10.155Z,15.19
2022-10-23T05:23:41.980Z,15.06
2022-10-23T05:26:08.892Z,15.28
2022-10-23T05:28:36.488Z,15.28
2022-10-23T05:31:04.960Z,15.07
2022-10-23T05:33:34.745Z,15.27
2022-10-23T05:36:01.709Z,15.26
2022-10-23T05:38:30.329Z,15.25
2022-10-23T05:40:56.847Z,15.31
2022-10-23T05:43:23.723Z,15.31
2022-10-23T05:45:57.642Z,15.32
2022-10-23T05:48:42.535Z,15.33
2022-10-23T05:51:23.891Z,15.29
2022-10-23T05:54:10.622Z,15.34
2022-10-23T05:56:57.432Z,15.37
2022-10-23T05:59:44.415Z,15.37
2022-10-23T06:02:23.169Z,15.40
2022-10-23T06:04:59.780Z,15.43
2022-10-23T06:07:44.401Z,15.45
2022-10-23T06:10:11.729Z,15.45
2022-10-23T06:12:42.603Z,15.51
2022-10-23T06:15:13.409Z,15.53
2022-10-23T06:17:54.184Z,15.49
2022-10-23T06:20:23.046Z,15.58
2022-10-23T06:23:01.068Z,15.59
2022-10-23T06:25:57.283Z,15.64
2022-10-23T06:28:31.916Z,15.61
2022-10-23T06:30:59.397Z,15.69
2022-10-23T06:33:26.255Z,15.70
2022-10-23T06:35:56.177Z,15.67
2022-10-23T06:38:23.337Z,15.75
2022-10-23T06:40:56.681Z,15.77
2022-10-23T06:43:33.060Z,15.79
2022-10-23T06:46:25.698Z,15.83
2022-10-23T06:49:10.869Z,15.85
2022-10-23T06:51:46.530Z,15.87
2022-10-23T06:54:14.601Z,15.89
2022-10-23T06:56:50.039Z,15.85
2022-10-23T06:59:31.263Z,15.92
2022-10-23T07:01:57.764Z,15.94
2022-10-23T07:04:24.682Z,15.95
2022-10-23T07:06:55.335Z,15.92
2022-10-23T07:09:25.600Z,15.99
2022-10-23T07:11:52.113Z,15.99
2022-10-23T07:14:21.807Z,16.02
2022-10-23T07:16:48.311Z,16.06
2022-10-23T07:19:14.801Z,16.07
2022-10-23T07:21:57.753Z,16.10
2022-10-23T07:24:40.278Z,16.07
2022-10-23T07:27:27.136Z,16.10
2022-10-23T07:29:56.437Z,16.16
2022-10-23T07:32:23.679Z,16.17
2022-10-23T07:35:09.958Z,16.20
2022-10-23T07:37:39.250Z,16.22
2022-10-23T07:40:06.963Z,16.24
2022-10-23T07:42:40.534Z,16.24
2022-10-23T07:45:08.090Z,16.25
2022-10-23T07:47:37.372Z,16.28
2022-10-23T07:50:04.108Z,16.28
2022-10-23T07:52:33.484Z,16.29
2022-10-23T07:55:13.992Z,16.27
2022-10-23T07:57:47.782Z,16.14
2022-10-23T08:00:31.062Z,16.23
2022-10-23T08:03:10.804Z,16.18
2022-10-23T08:05:37.482Z,16.08
2022-10-23T08:08:07.445Z,16.06
2022-10-23T08:10:35.972Z,16.05
2022-10-23T08:13:02.690Z,16.01
2022-10-23T08:15:52.675Z,15.99
2022-10-23T08:18:37.740Z,15.76
2022-10-23T08:21:04.425Z,15.89
2022-10-23T08:23:31.702Z,15.83
2022-10-23T08:26:02.989Z,15.89
2022-10-23T08:28:32.096Z,15.83
2022-10-23T08:31:08.076Z,15.83
2022-10-23T08:33:34.563Z,15.77
2022-10-23T08:36:01.096Z,15.82
2022-10-23T08:38:32.595Z,15.83
2022-10-23T08:40:59.618Z,15.83
2022-10-23T08:43:50.906Z,15.79
2022-10-23T08:46:33.227Z,15.79
2022-10-23T08:49:53.366Z,15.78
2022-10-23T08:52:39.704Z,15.63
2022-10-23T08:55:18.248Z,15.76
2022-10-23T08:58:06.721Z,15.76
2022-10-23T09:00:34.080Z,15.77
2022-10-23T09:03:03.555Z,15.59
2022-10-23T09:05:39.193Z,15.78
2022-10-23T09:08:25.729Z,15.65
2022-10-23T09:11:28.630Z,15.81
2022-10-23T09:14:22.578Z,15.81
2022-10-23T09:16:58.123Z,15.83
2022-10-23T09:19:26.931Z,15.85
2022-10-23T09:21:55.669Z,15.86
2022-10-23T09:24:24.716Z,15.87
2022-10-23T09:26:53.574Z,15.60
2022-10-23T09:29:27.525Z,15.86
2022-10-23T09:31:57.856Z,15.88
2022-10-23T09:34:26.930Z,15.87
2022-10-23T09:36:59.353Z,15.87
2022-10-23T09:39:28.015Z,15.76
2022-10-23T09:41:56.903Z,15.88
2022-10-23T09:44:30.292Z,15.88
2022-10-23T09:47:01.277Z,15.90
2022-10-23T09:49:30.438Z,15.91
2022-10-23T09:52:04.817Z,15.92
2022-10-23T09:54:34.664Z,15.75
2022-10-23T09:57:24.276Z,15.91
2022-10-23T09:59:56.151Z,15.97
2022-10-23T10:02:34.984Z,15.78
2022-10-23T10:05:32.288Z,15.81
2022-10-23T10:08:38.139Z,16.00
2022-10-23T10:11:22.442Z,15.99
2022-10-23T10:13:57.810Z,16.01
2022-10-23T10:16:33.323Z,15.99
2022-10-23T10:19:18.530Z,16.02
2022-10-23T10:22:03.221Z,15.99
2022-10-23T10:24:35.891Z,15.79
2022-10-23T10:27:21.343Z,16.00
2022-10-23T10:30:00.966Z,16.03
2022-10-23T10:32:30.340Z,16.05
2022-10-23T10:35:11.915Z,16.07
2022-10-23T10:38:16.923Z,16.09
2022-10-23T10:40:46.310Z,16.14
2022-10-23T10:43:34.177Z,16.09
2022-10-23T10:46:18.735Z,16.16
2022-10-23T10:48:54.403Z,16.21
2022-10-23T10:51:54.537Z,16.06
2022-10-23T10:54:51.432Z,16.06
2022-10-23T10:57:26.794Z,15.99
2022-10-23T10:59:57.153Z,16.14
2022-10-23T11:02:31.431Z,16.14
2022-10-23T11:05:15.154Z,16.34
2022-10-23T11:08:07.035Z,16.19
2022-10-23T11:10:35.524Z,16.24
2022-10-23T11:13:02.608Z,16.44
2022-10-23T11:15:38.152Z,16.46
2022-10-23T11:18:12.658Z,16.56
2022-10-23T11:20:51.320Z,16.54
2022-10-23T11:23:48.661Z,16.38
2022-10-23T11:26:34.840Z,16.62
2022-10-23T11:29:20.006Z,16.63
2022-10-23T11:32:21.610Z,16.65
2022-10-23T11:35:18.487Z,16.66
2022-10-23T11:37:45.202Z,16.65
2022-10-23T11:40:11.839Z,16.64
2022-10-23T11:42:41.352Z,16.63
2022-10-23T11:45:28.031Z,16.60
2022-10-23T11:48:00.196Z,16.60
2022-10-23T11:50:48.699Z,16.43
2022-10-23T11:53:26.079Z,16.65
2022-10-23T11:56:11.043Z,16.67
2022-10-23T11:58:42.038Z,16.51
2022-10-23T12:01:39.297Z,16.70
2022-10-23T12:04:14.668Z,16.73
2022-10-23T12:06:51.124Z,16.55
2022-10-23T12:09:42.373Z,16.77
2022-10-23T12:12:08.794Z,16.81
2022-10-23T12:14:39.683Z,16.77
2022-10-23T12:17:22.710Z,16.89
2022-10-23T12:20:12.599Z,16.94
2022-10-23T12:23:02.334Z,17.03
2022-10-23T12:26:20.249Z,17.10
2022-10-23T12:29:01.806Z,17.07
2022-10-23T12:31:48.013Z,17.38
2022-10-23T12:34:26.859Z,17.52
2022-10-23T12:37:28.576Z,17.62
2022-10-23T12:39:56.245Z,17.70
2022-10-23T12:42:24.993Z,17.75
2022-10-23T12:45:23.962Z,17.87
2022-10-23T12:47:52.128Z,17.98
2022-10-23T12:50:26.605Z,17.90
2022-10-23T12:53:01.700Z,17.92
2022-10-23T12:55:35.052Z,18.16
2022-10-23T12:58:02.553Z,18.21
2022-10-23T13:00:29.040Z,18.26
2022-10-23T13:03:00.956Z,18.18
2022-10-23T13:05:28.787Z,18.33
2022-10-23T13:07:56.973Z,18.27
2022-10-23T13:10:35.370Z,18.38
2022-10-23T13:13:07.362Z,18.32
2022-10-23T13:15:42.882Z,18.31
2022-10-23T13:18:11.297Z,18.32
2022-10-23T13:20:41.283Z,18.18
2022-10-23T13:23:07.681Z,18.31
2022-10-23T13:25:36.540Z,18.10
2022-10-23T13:28:44.574Z,18.09
2022-10-23T13:31:10.950Z,18.22
2022-10-23T13:33:51.907Z,18.18
2022-10-23T13:36:18.299Z,18.18
2022-10-23T13:38:59.458Z,18.16
2022-10-23T13:41:46.323Z,18.18
2022-10-23T13:44:18.011Z,18.17
2022-10-23T13:46:45.384Z,18.18
2022-10-23T13:49:12.105Z,18.22
2022-10-23T13:51:42.781Z,18.26
2022-10-23T13:54:18.746Z,18.07
2022-10-23T13:56:45.474Z,18.31
2022-10-23T13:59:12.019Z,18.36
2022-10-23T14:01:38.861Z,18.49
2022-10-23T14:04:06.861Z,18.57
2022-10-23T14:06:33.840Z,18.63
2022-10-23T14:09:00.327Z,18.68
2022-10-23T14:11:26.924Z,18.66
2022-10-23T14:13:53.352Z,18.74
2022-10-23T14:16:20.345Z,18.70
2022-10-23T14:18:47.267Z,18.75
2022-10-23T14:21:16.003Z,18.60
2022-10-23T14:23:42.522Z,18.78
2022-10-23T14:26:11.824Z,18.61
2022-10-23T14:28:38.462Z,18.72
2022-10-23T14:31:14.287Z,18.60
2022-10-23T14:33:41.813Z,18.77
2022-10-23T14:36:09.034Z,18.73
2022-10-23T14:38:36.371Z,18.72
2022-10-23T14:41:09.066Z,18.68
2022-10-23T14:43:35.527Z,18.76
2022-10-23T14:46:17.595Z,18.58
2022-10-23T14:48:46.192Z,18.78
2022-10-23T14:51:22.796Z,18.80
2022-10-23T14:53:56.456Z,18.76
2022-10-23T14:56:26.128Z,18.81
2022-10-23T14:58:52.595Z,18.77
2022-10-23T15:01:19.165Z,18.71
2022-10-23T15:03:45.757Z,18.66
2022-10-23T15:06:16.066Z,18.64
2022-10-23T15:08:44.783Z,18.51
2022-10-23T15:11:12.643Z,18.49
2022-10-23T15:13:39.338Z,18.52
2022-10-23T15:16:08.236Z,18.37
2022-10-23T15:18:35.505Z,18.57
2022-10-23T15:21:03.318Z,18.55
2022-10-23T15:23:29.775Z,18.52
2022-10-23T15:26:01.025Z,18.50
2022-10-23T15:28:28.043Z,18.50
2022-10-23T15:30:55.275Z,18.46
2022-10-23T15:33:23.149Z,18.38
2022-10-23T15:35:50.227Z,18.31
2022-10-23T15:38:16.672Z,18.30
2022-10-23T15:40:43.592Z,18.28
2022-10-23T15:43:13.054Z,18.24
2022-10-23T15:45:40.034Z,18.22
2022-10-23T15:48:06.956Z,18.20
2022-10-23T15:50:33.991Z,18.18
2022-10-23T15:53:00.531Z,18.13
2022-10-23T15:55:27.209Z,18.09
2022-10-23T15:57:54.279Z,18.05
2022-10-23T16:00:20.921Z,18.00
2022-10-23T16:02:47.743Z,17.99
2022-10-23T16:05:14.455Z,17.91
2022-10-23T16:07:40.862Z,17.92
2022-10-23T16:10:07.691Z,17.91
2022-10-23T16:12:34.104Z,17.85
2022-10-23T16:15:00.559Z,17.73
2022-10-23T16:17:26.949Z,17.85
2022-10-23T16:19:53.481Z,17.81
2022-10-23T16:22:19.895Z,17.75
2022-10-23T16:24:46.375Z,17.73
2022-10-23T16:27:12.759Z,17.70
2022-10-23T16:29:39.201Z,17.67
2022-10-23T16:32:05.680Z,17.62
2022-10-23T16:34:32.134Z,17.57
2022-10-23T16:36:58.578Z,17.52
2022-10-23T16:39:43.672Z,17.50
2022-10-23T16:42:28.634Z,17.46
2022-10-23T16:45:05.436Z,17.42
2022-10-23T16:47:32.553Z,17.39
2022-10-23T16:49:59.395Z,17.36
2022-10-23T16:52:27.214Z,17.34
2022-10-23T16:54:53.709Z,17.28
2022-10-23T16:57:20.369Z,17.30
2022-10-23T16:59:46.768Z,17.29
2022-10-23T17:02:13.861Z,17.27
2022-10-23T17:04:40.408Z,17.25
2022-10-23T17:07:07.094Z,17.24
2022-10-23T17:09:33.575Z,17.19
2022-10-23T17:12:00.037Z,17.18
2022-10-23T17:14:26.758Z,17.16
2022-10-23T17:16:53.232Z,17.19
2022-10-23T17:22:08.905Z,17.10
2022-10-23T17:24:35.298Z,16.79
2022-10-23T17:27:01.798Z,16.43
2022-10-23T17:29:28.210Z,16.05
2022-10-23T17:31:54.691Z,15.72
2022-10-23T17:34:23.166Z,15.37
2022-10-23T17:36:53.059Z,15.08
2022-10-23T17:39:22.906Z,14.80
2022-10-23T17:41:49.529Z,14.58
2022-10-23T17:44:16.443Z,14.42
2022-10-23T17:46:43.013Z,14.21
2022-10-23T17:49:10.766Z,14.02
2022-10-23T17:51:37.581Z,13.88
2022-10-23T17:54:07.207Z,13.51
2022-10-23T17:56:35.980Z,13.37
2022-10-23T17:59:06.538Z,13.46
2022-10-23T18:01:33.292Z,13.41
2022-10-23T18:04:02.347Z,13.14
2022-10-23T18:06:33.323Z,13.25
2022-10-23T18:09:01.333Z,13.23
2022-10-23T18:11:30.675Z,13.16
2022-10-23T18:16:26.835Z,13.15
2022-10-23T18:18:53.715Z,13.14
2022-10-23T18:21:22.231Z,12.90
2022-10-23T18:23:49.232Z,13.11
2022-10-23T18:26:21.741Z,13.13
2022-10-23T18:28:49.801Z,13.14
2022-10-23T18:31:17.002Z,13.10
2022-10-23T18:33:43.613Z,13.03
2022-10-23T18:36:20.830Z,13.10
2022-10-23T18:38:48.334Z,13.05
2022-10-23T18:41:18.604Z,13.05
2022-10-23T18:43:45.788Z,13.12
2022-10-23T18:46:13.529Z,13.11
2022-10-23T18:48:40.404Z,13.12
2022-10-23T18:51:19.203Z,13.02
2022-10-23T18:53:45.701Z,13.08
2022-10-23T18:56:13.578Z,13.06
2022-10-23T18:58:40.209Z,13.08
2022-10-23T19:01:06.829Z,13.05
2022-10-23T19:03:33.388Z,13.05
2022-10-23T19:05:59.862Z,12.99
2022-10-23T19:08:26.369Z,13.01
2022-10-23T19:10:53.620Z,12.97
2022-10-23T19:13:20.061Z,12.98
2022-10-23T19:15:46.477Z,12.93
2022-10-23T19:18:12.919Z,12.95
2022-10-23T19:20:43.062Z,12.71
2022-10-23T19:23:12.725Z,12.93
2022-10-23T19:25:43.365Z,12.90
2022-10-23T19:28:09.821Z,12.79
2022-10-23T19:30:36.661Z,12.87
2022-10-23T19:33:03.140Z,12.85
2022-10-23T19:35:29.621Z,12.90
2022-10-23T19:37:56.051Z,12.89
2022-10-23T19:40:22.543Z,12.90
2022-10-23T19:42:48.915Z,12.90
2022-10-23T19:45:15.749Z,12.93
2022-10-23T19:47:42.666Z,12.95
2022-10-23T19:50:10.339Z,12.96
2022-10-23T19:52:37.313Z,12.95
2022-10-23T19:55:05.851Z,12.67
2022-10-23T19:57:33.151Z,13.06
2022-10-23T20:00:00.371Z,13.05
2022-10-23T20:02:27.609Z,13.12
2022-10-23T20:04:54.109Z,13.14
2022-10-23T20:07:20.597Z,13.11
2022-10-23T20:09:47.026Z,13.20
2022-10-23T20:12:13.463Z,13.21
2022-10-23T20:14:39.874Z,13.13
2022-10-23T20:17:06.571Z,13.29
2022-10-23T20:19:32.985Z,13.31
2022-10-23T20:21:59.399Z,13.33
2022-10-23T20:24:25.817Z,13.34
2022-10-23T20:26:55.067Z,13.27
2022-10-23T20:29:22.683Z,13.37
2022-10-23T20:31:49.158Z,13.39
2022-10-23T20:34:15.577Z,13.34
2022-10-23T20:36:47.271Z,13.42
2022-10-23T20:39:17.400Z,13.41
2022-10-23T20:41:43.983Z,13.42
2022-10-23T20:44:14.081Z,13.23
2022-10-23T20:46:40.824Z,13.42
2022-10-23T20:49:07.532Z,13.44
2022-10-23T20:51:34.150Z,13.41
2022-10-23T20:54:00.538Z,13.38
2022-10-23T20:56:29.989Z,13.42
2022-10-23T20:59:01.679Z,13.45
2022-10-23T21:01:29.300Z,13.39
2022-10-23T21:03:57.244Z,13.42
2022-10-23T21:06:25.280Z,13.43
2022-10-23T21:08:56.718Z,13.26
2022-10-23T21:11:23.229Z,13.47
2022-10-23T21:13:49.696Z,13.49
2022-10-23T21:16:28.732Z,13.49
2022-10-23T21:18:56.676Z,13.52
2022-10-23T21:21:24.092Z,13.58
2022-10-23T21:23:52.475Z,13.57
2022-10-23T21:26:21.703Z,13.39
2022-10-23T21:28:56.196Z,13.63
2022-10-23T21:31:27.956Z,13.69
2022-10-23T21:33:54.368Z,13.67
2022-10-23T21:36:23.021Z,13.73
2022-10-23T21:38:50.989Z,13.76
2022-10-23T21:41:30.583Z,13.60
2022-10-23T21:44:00.409Z,13.81
2022-10-23T21:46:29.359Z,13.86
2022-10-23T21:48:55.970Z,13.81
2022-10-23T21:51:25.191Z,13.88
2022-10-23T21:53:53.469Z,13.93
2022-10-23T21:56:27.100Z,13.88
2022-10-23T21:58:53.813Z,13.95
2022-10-23T22:01:20.688Z,13.89
2022-10-23T22:03:47.406Z,13.98
2022-10-23T22:06:19.981Z,13.83
2022-10-23T22:08:46.790Z,14.02
2022-10-23T22:11:14.234Z,14.03
2022-10-23T22:13:42.050Z,13.95
2022-10-23T22:16:08.935Z,13.98
2022-10-23T22:18:36.968Z,14.03
2022-10-23T22:21:08.769Z,13.84
2022-10-23T22:23:35.685Z,14.01
2022-10-23T22:26:22.012Z,14.01
2022-10-23T22:28:49.373Z,13.99
2022-10-23T22:31:17.687Z,13.99
2022-10-23T22:33:44.157Z,13.97
2022-10-23T22:36:10.608Z,13.98
2022-10-23T22:38:37.346Z,13.99
2022-10-23T22:41:04.437Z,14.01
2022-10-23T22:43:31.144Z,13.98
2022-10-23T22:46:10.620Z,13.97
2022-10-23T22:48:37.698Z,13.96
2022-10-23T22:51:07.301Z,13.93
2022-10-23T22:53:35.438Z,13.96
2022-10-23T22:56:06.238Z,14.01
2022-10-23T22:58:32.749Z,13.97
2022-10-23T23:01:21.432Z,14.01
2022-10-23T23:03:48.716Z,14.02
2022-10-23T23:06:15.360Z,14.03
2022-10-23T23:08:42.835Z,13.97
2022-10-23T23:11:12.608Z,14.02
2022-10-23T23:13:40.589Z,14.03
2022-10-23T23:16:07.632Z,14.02
2022-10-23T23:18:35.023Z,14.02
2022-10-23T23:21:02.915Z,14.02
2022-10-23T23:23:29.597Z,13.98
2022-10-23T23:25:56.554Z,13.95
2022-10-23T23:28:23.012Z,13.96
2022-10-23T23:30:49.445Z,13.98
2022-10-23T23:33:17.475Z,13.99
2022-10-23T23:35:45.775Z,13.93
2022-10-23T23:38:13.125Z,13.93
2022-10-23T23:40:39.906Z,13.95
2022-10-23T23:43:06.628Z,13.92
2022-10-23T23:45:33.099Z,13.94
2022-10-23T23:47:59.629Z,13.94
2022-10-23T23:50:26.246Z,13.94
2022-10-23T23:52:52.681Z,13.84
2022-10-23T23:55:19.236Z,13.93
2022-10-23T23:57:46.061Z,13.91
